createdAt,value
2022-10-22T00:01:08.727Z,19.70
2022-10-22T00:04:11.451Z,19.70
2022-10-22T00:07:14.213Z,19.67
2022-10-22T00:10:17.722Z,19.67
2022-10-22T00:13:21.326Z,19.68
2022-10-22T00:16:25.353Z,19.67
2022-10-22T00:19:28.260Z,19.65
2022-10-22T00:22:30.969Z,19.69
2022-10-22T00:25:35.403Z,19.66
2022-10-22T00:28:38.170Z,19.65
2022-10-22T00:31:42.206Z,19.61
2022-10-22T00:34:44.939Z,19.62
2022-10-22T00:37:47.674Z,19.63
2022-10-22T00:40:50.897Z,19.61
2022-10-22T00:43:58.408Z,19.60
2022-10-22T00:47:02.546Z,19.63
2022-10-22T00:50:06.514Z,19.62
2022-10-22T00:53:11.611Z,19.58
2022-10-22T00:56:15.005Z,19.55
2022-10-22T00:59:18.034Z,19.55
2022-10-22T01:02:22.056Z,19.55
2022-10-22T01:05:27.384Z,19.53
2022-10-22T01:08:35.101Z,19.51
2022-10-22T01:11:43.643Z,19.53
2022-10-22T01:14:53.211Z,19.52
2022-10-22T01:18:00.809Z,19.50
2022-10-22T01:21:08.148Z,19.46
2022-10-22T01:24:16.605Z,19.50
2022-10-22T01:27:36.273Z,19.53
2022-10-22T01:30:40.967Z,19.49
2022-10-22T01:33:45.479Z,19.49
2022-10-22T01:36:49.125Z,19.51
2022-10-22T01:39:52.882Z,19.48
2022-10-22T01:42:56.670Z,19.50
2022-10-22T01:46:02.579Z,19.47
2022-10-22T01:49:14.204Z,19.42
2022-10-22T01:52:19.695Z,19.46
2022-10-22T01:55:29.909Z,19.44
2022-10-22T01:58:38.717Z,19.44
2022-10-22T02:01:50.147Z,19.44
2022-10-22T02:04:54.832Z,19.43
2022-10-22T02:08:01.066Z,19.44
2022-10-22T02:11:04.092Z,19.45
2022-10-22T02:14:08.852Z,19.44
2022-10-22T02:17:15.332Z,19.43
2022-10-22T02:20:19.447Z,19.43
2022-10-22T02:23:22.597Z,19.42
2022-10-22T02:26:29.105Z,19.39
2022-10-22T02:29:36.828Z,19.37
2022-10-22T02:32:43.689Z,19.35
2022-10-22T02:35:46.747Z,19.35
2022-10-22T02:38:52.185Z,19.35
2022-10-22T02:41:55.654Z,19.38
2022-10-22T02:44:58.354Z,19.38
2022-10-22T02:48:02.460Z,19.38
2022-10-22T02:51:05.239Z,19.37
2022-10-22T02:54:07.886Z,19.35
2022-10-22T02:57:10.744Z,19.35
2022-10-22T03:00:14.058Z,19.35
2022-10-22T03:03:18.123Z,19.34
2022-10-22T03:06:20.931Z,19.33
2022-10-22T03:09:24.850Z,19.31
2022-10-22T03:12:33.438Z,19.31
2022-10-22T03:15:36.151Z,19.31
2022-10-22T03:18:40.226Z,19.35
2022-10-22T03:21:45.186Z,19.33
2022-10-22T03:24:49.718Z,19.31
2022-10-22T03:27:53.690Z,19.27
2022-10-22T03:30:56.392Z,19.31
2022-10-22T03:34:00.456Z,19.28
2022-10-22T03:37:03.172Z,19.25
2022-10-22T03:40:07.342Z,19.30
2022-10-22T03:43:10.099Z,19.37
2022-10-22T03:46:12.821Z,19.33
2022-10-22T03:49:16.833Z,19.30
2022-10-22T03:52:19.652Z,19.29
2022-10-22T03:55:22.327Z,19.30
2022-10-22T03:58:24.966Z,19.28
2022-10-22T04:01:28.722Z,19.26
2022-10-22T04:04:33.058Z,19.29
2022-10-22T04:07:35.806Z,19.27
2022-10-22T04:10:38.493Z,19.28
2022-10-22T04:13:56.234Z,19.26
2022-10-22T04:16:59.020Z,19.26
2022-10-22T04:20:03.528Z,19.22
2022-10-22T04:23:06.226Z,19.21
2022-10-22T04:26:08.925Z,19.23
2022-10-22T04:29:15.896Z,19.26
2022-10-22T04:32:19.154Z,19.20
2022-10-22T04:35:23.239Z,19.24
2022-10-22T04:38:25.898Z,19.24
2022-10-22T04:41:29.969Z,19.23
2022-10-22T04:44:32.795Z,19.27
2022-10-22T04:47:35.480Z,19.20
2022-10-22T04:50:39.506Z,19.20
2022-10-22T04:53:42.209Z,19.15
2022-10-22T04:56:44.839Z,19.18
2022-10-22T04:59:47.555Z,19.18
2022-10-22T05:02:50.825Z,19.17
2022-10-22T05:05:54.868Z,19.20
2022-10-22T05:08:58.484Z,19.21
2022-10-22T05:12:01.257Z,19.21
2022-10-22T05:15:03.951Z,19.17
2022-10-22T05:18:06.841Z,19.15
2022-10-22T05:21:11.522Z,19.18
2022-10-22T05:24:14.349Z,19.23
2022-10-22T05:27:17.042Z,19.21
2022-10-22T05:30:19.712Z,19.24
2022-10-22T05:33:24.117Z,19.21
2022-10-22T05:36:28.391Z,19.17
2022-10-22T05:39:31.033Z,19.22
2022-10-22T05:42:33.959Z,19.22
2022-10-22T05:45:37.540Z,19.21
2022-10-22T05:48:40.333Z,19.17
2022-10-22T05:51:44.436Z,19.20
2022-10-22T05:54:47.127Z,19.21
2022-10-22T05:57:50.265Z,19.24
2022-10-22T06:00:52.928Z,19.25
2022-10-22T06:03:56.008Z,19.21
2022-10-22T06:07:00.080Z,19.25
2022-10-22T06:10:03.209Z,19.21
2022-10-22T06:13:08.146Z,19.19
2022-10-22T06:16:10.768Z,19.20
2022-10-22T06:19:13.887Z,19.23
2022-10-22T06:22:18.010Z,19.24
2022-10-22T06:25:20.711Z,19.24
2022-10-22T06:31:27.428Z,19.21
2022-10-22T06:34:30.067Z,19.20
2022-10-22T06:37:34.205Z,19.20
2022-10-22T06:40:36.912Z,19.23
2022-10-22T06:43:40.018Z,19.21
2022-10-22T06:46:43.624Z,19.25
2022-10-22T06:49:46.542Z,19.22
2022-10-22T14:48:17.170Z,17.43
2022-10-22T14:51:20.979Z,17.49
2022-10-22T14:54:23.746Z,17.47
2022-10-22T14:57:26.570Z,17.50
2022-10-22T15:00:29.597Z,17.48
2022-10-22T15:03:33.800Z,17.47
2022-10-22T15:06:36.701Z,17.47
2022-10-22T15:09:39.641Z,17.50
2022-10-22T15:12:42.422Z,17.50
2022-10-22T15:15:45.212Z,17.51
2022-10-22T15:18:49.353Z,17.56
2022-10-22T15:21:52.108Z,17.53
2022-10-22T15:24:54.909Z,17.61
2022-10-22T15:28:00.754Z,17.65
2022-10-22T15:31:08.410Z,17.71
2022-10-22T15:34:12.914Z,17.67
2022-10-22T15:37:15.671Z,17.71
2022-10-22T15:40:18.565Z,17.69
2022-10-22T15:43:21.328Z,17.71
2022-10-22T15:46:25.733Z,17.70
2022-10-22T15:49:31.062Z,17.75
2022-10-22T15:52:33.903Z,17.76
2022-10-22T15:55:36.720Z,17.70
2022-10-22T15:58:39.581Z,17.75
2022-10-22T16:01:43.235Z,17.68
2022-10-22T16:04:47.976Z,17.72
2022-10-22T16:07:52.260Z,17.75
2022-10-22T16:10:55.044Z,17.72
2022-10-22T16:13:58.753Z,17.73
2022-10-22T16:17:03.590Z,17.70
2022-10-22T16:20:08.525Z,17.70
2022-10-22T16:23:11.485Z,17.71
2022-10-22T16:26:14.882Z,17.69
2022-10-22T16:29:17.731Z,17.70
2022-10-22T16:32:21.517Z,17.65
2022-10-22T16:35:25.640Z,17.62
2022-10-22T16:38:28.433Z,17.62
2022-10-22T16:41:36.342Z,17.66
2022-10-22T16:44:39.108Z,17.66
2022-10-22T16:47:43.125Z,17.69
2022-10-22T16:50:49.762Z,17.89
2022-10-22T16:53:55.247Z,17.89
2022-10-22T16:56:58.073Z,17.93
2022-10-22T17:00:01.053Z,17.92
2022-10-22T17:03:04.167Z,18.00
2022-10-22T17:06:09.045Z,18.05
2022-10-22T17:09:13.607Z,18.16
2022-10-22T17:12:16.700Z,18.18
2022-10-22T17:15:20.206Z,18.19
2022-10-22T17:18:22.958Z,18.23
2022-10-22T17:21:27.261Z,18.28
2022-10-22T17:24:31.313Z,18.32
2022-10-22T17:27:34.113Z,18.35
2022-10-22T17:30:39.048Z,18.39
2022-10-22T17:33:41.856Z,18.43
2022-10-22T17:36:46.014Z,18.52
2022-10-22T17:39:48.870Z,18.50
2022-10-22T17:42:51.639Z,18.49
2022-10-22T17:45:55.279Z,18.51
2022-10-22T17:48:59.150Z,18.48
2022-10-22T17:52:03.328Z,18.45
2022-10-22T17:55:06.354Z,18.50
2022-10-22T17:58:09.839Z,18.43
2022-10-22T18:01:20.209Z,18.50
2022-10-22T18:04:23.965Z,18.55
2022-10-22T18:07:28.364Z,18.65
2022-10-22T18:10:32.721Z,18.67
2022-10-22T18:13:41.625Z,18.71
2022-10-22T18:16:44.681Z,18.71
2022-10-22T18:19:49.254Z,18.75
2022-10-22T18:22:55.041Z,18.73
2022-10-22T18:25:58.350Z,18.76
2022-10-22T18:29:03.195Z,18.78
2022-10-22T18:32:12.152Z,18.81
2022-10-22T18:35:16.007Z,18.87
2022-10-22T18:38:22.657Z,18.90
2022-10-22T18:41:27.507Z,18.94
2022-10-22T18:44:30.428Z,18.87
2022-10-22T18:47:33.316Z,18.88
2022-10-22T18:50:36.172Z,18.88
2022-10-22T18:53:40.887Z,18.90
2022-10-22T18:56:43.725Z,18.90
2022-10-22T18:59:47.783Z,18.88
2022-10-22T19:02:50.618Z,18.88
2022-10-22T19:06:33.220Z,18.90
2022-10-22T19:09:40.117Z,18.90
2022-10-22T19:12:42.781Z,18.94
2022-10-22T19:15:46.038Z,18.96
2022-10-22T19:18:48.744Z,18.95
2022-10-22T19:21:52.179Z,18.94
2022-10-22T19:24:56.376Z,18.95
2022-10-22T19:27:59.284Z,18.98
2022-10-22T19:31:02.463Z,19.00
2022-10-22T19:34:05.663Z,19.03
2022-10-22T19:37:08.455Z,19.04
2022-10-22T19:40:12.944Z,19.08
2022-10-22T19:43:18.893Z,19.08
2022-10-22T19:46:22.457Z,19.11
2022-10-22T19:49:25.188Z,19.12
2022-10-22T19:52:27.983Z,19.12
2022-10-22T19:55:32.201Z,19.12
2022-10-22T19:58:35.538Z,19.12
2022-10-22T20:01:38.637Z,19.15
2022-10-22T20:04:41.423Z,19.25
2022-10-22T20:07:44.475Z,19.30
2022-10-22T20:10:50.719Z,19.30
2022-10-22T20:13:53.372Z,19.32
2022-10-22T20:16:56.086Z,19.31
2022-10-22T20:19:59.468Z,19.33
2022-10-22T20:23:02.475Z,19.26
2022-10-22T20:26:06.830Z,19.35
2022-10-22T20:29:09.625Z,19.37
2022-10-22T20:32:13.380Z,19.38
2022-10-22T20:35:16.237Z,19.34
2022-10-22T20:38:18.943Z,19.33
2022-10-22T20:41:23.876Z,19.33
2022-10-22T20:44:26.570Z,19.30
2022-10-22T20:47:39.220Z,19.31
2022-10-22T20:50:51.901Z,19.34
2022-10-22T20:53:54.613Z,19.39
2022-10-22T20:56:58.808Z,19.37
2022-10-22T21:00:01.486Z,19.38
2022-10-22T21:03:04.176Z,19.38
2022-10-22T21:06:07.475Z,19.39
2022-10-22T21:09:10.789Z,19.40
2022-10-22T21:12:14.942Z,19.40
2022-10-22T21:15:17.817Z,19.40
2022-10-22T21:18:20.575Z,19.37
2022-10-22T21:21:23.356Z,19.39
2022-10-22T21:24:26.453Z,19.39
2022-10-22T21:27:30.513Z,19.40
2022-10-22T21:30:33.316Z,19.43
2022-10-22T21:33:37.043Z,19.43
2022-10-22T21:36:39.792Z,19.43
2022-10-22T21:39:42.552Z,19.41
2022-10-22T21:42:46.583Z,19.45
2022-10-22T21:45:49.265Z,19.45
2022-10-22T21:48:55.003Z,19.42
2022-10-22T21:51:59.928Z,19.44
2022-10-22T21:55:02.635Z,19.44
2022-10-22T21:58:07.104Z,19.45
2022-10-22T22:01:09.949Z,19.42
2022-10-22T22:04:12.657Z,19.44
2022-10-22T22:07:15.380Z,19.45
2022-10-22T22:10:18.190Z,19.45
2022-10-22T22:13:24.941Z,19.42
2022-10-22T22:16:29.070Z,19.41
2022-10-22T22:19:31.754Z,19.42
2022-10-22T22:22:34.466Z,19.44
2022-10-22T22:25:37.112Z,19.43
2022-10-22T22:28:41.463Z,19.41
2022-10-22T22:31:45.934Z,19.28
2022-10-22T22:34:48.682Z,19.33
2022-10-22T22:37:51.373Z,19.32
2022-10-22T22:40:54.011Z,19.35
2022-10-22T22:43:58.111Z,19.40
2022-10-22T22:47:00.747Z,19.39
2022-10-22T22:50:03.440Z,19.38
2022-10-22T22:53:06.108Z,19.43
2022-10-22T22:56:10.111Z,19.42
2022-10-22T22:59:14.207Z,19.42
2022-10-22T23:02:16.928Z,19.40
2022-10-22T23:05:19.621Z,19.40
2022-10-22T23:08:22.307Z,19.42
2022-10-22T23:11:25.748Z,19.45
2022-10-22T23:14:29.929Z,19.42
2022-10-22T23:17:32.640Z,19.41
2022-10-22T23:20:38.293Z,19.43
2022-10-22T23:23:43.621Z,19.45
2022-10-22T23:26:47.620Z,19.42
2022-10-22T23:29:51.658Z,19.42
2022-10-22T23:32:54.372Z,19.41
2022-10-22T23:35:57.172Z,19.42
2022-10-22T23:39:00.143Z,19.41
2022-10-22T23:42:02.891Z,19.41
2022-10-22T23:45:07.659Z,19.41
2022-10-22T23:48:10.370Z,19.39
2022-10-22T23:51:14.203Z,19.41
2022-10-22T23:54:17.850Z,19.39
2022-10-22T23:57:20.543Z,19.36
